METAR Data
IDs: Format: Raw Decoded Include TAF

Data at: 0432 UTC 26 Sep 2018

METAR for:KFLL (Ft Lauderdale-Hollyw, FL, US)
Text:KFLL 260353Z 12009KT 10SM FEW030 SCT250 29/25 A3011 RMK AO2 SLP194 CB DSNT SE MOV NW T02940250
Temperature: 29.4°C ( 85°F)
Dewpoint: 25.0°C ( 77°F) [RH = 77%]
Pressure (altimeter):30.11 inches Hg (1019.7 mb) [Sea level pressure: 1019.4 mb]
Winds:from the ESE (120 degrees) at 10 MPH (9 knots; 4.6 m/s)
Visibility:10 or more sm (16+ km)
Ceiling:at least 12,000 feet AGL
Clouds: few clouds at 3000 feet AGL, scattered clouds at 25000 feet AGL